sensor_id;sensor_type;location;lat;lon;timestamp;P1;durP1;ratioP1;P2;durP2;ratioP2
78298;SDS011;67556;55.656;12.590;2023-11-19T00:02:12;3.55;;;2.10;;
78298;SDS011;67556;55.656;12.590;2023-11-19T00:04:39;3.00;;;2.00;;
78298;SDS011;67556;55.656;12.590;2023-11-19T00:07:06;2.42;;;2.00;;
78298;SDS011;67556;55.656;12.590;2023-11-19T00:09:35;2.55;;;2.00;;
78298;SDS011;67556;55.656;12.590;2023-11-19T00:12:03;2.72;;;1.90;;
78298;SDS011;67556;55.656;12.590;2023-11-19T00:14:29;2.80;;;1.63;;
78298;SDS011;67556;55.656;12.590;2023-11-19T00:16:56;2.60;;;2.38;;
78298;SDS011;67556;55.656;12.590;2023-11-19T00:19:23;2.40;;;1.92;;
78298;SDS011;67556;55.656;12.590;2023-11-19T00:21:50;3.30;;;2.00;;
78298;SDS011;67556;55.656;12.590;2023-11-19T00:24:18;2.78;;;2.17;;
78298;SDS011;67556;55.656;12.590;2023-11-19T00:26:46;3.03;;;2.25;;
78298;SDS011;67556;55.656;12.590;2023-11-19T00:29:13;3.63;;;2.13;;
78298;SDS011;67556;55.656;12.590;2023-11-19T00:31:40;2.47;;;2.00;;
78298;SDS011;67556;55.656;12.590;2023-11-19T00:34:09;3.20;;;2.22;;
78298;SDS011;67556;55.656;12.590;2023-11-19T00:36:36;2.83;;;2.30;;
78298;SDS011;67556;55.656;12.590;2023-11-19T00:39:02;3.97;;;2.30;;
78298;SDS011;67556;55.656;12.590;2023-11-19T00:41:30;2.85;;;2.33;;
78298;SDS011;67556;55.656;12.590;2023-11-19T00:43:57;3.55;;;2.42;;
78298;SDS011;67556;55.656;12.590;2023-11-19T00:46:23;3.70;;;2.60;;
78298;SDS011;67556;55.656;12.590;2023-11-19T00:48:50;2.92;;;2.13;;
78298;SDS011;67556;55.656;12.590;2023-11-19T00:51:16;4.00;;;2.47;;
78298;SDS011;67556;55.656;12.590;2023-11-19T00:53:44;2.80;;;2.22;;
78298;SDS011;67556;55.656;12.590;2023-11-19T00:56:10;5.38;;;2.83;;
78298;SDS011;67556;55.656;12.590;2023-11-19T00:58:39;4.18;;;2.60;;
78298;SDS011;67556;55.656;12.590;2023-11-19T01:01:05;3.42;;;2.70;;
78298;SDS011;67556;55.656;12.590;2023-11-19T01:03:32;3.03;;;2.33;;
78298;SDS011;67556;55.656;12.590;2023-11-19T01:05:59;3.97;;;2.42;;
78298;SDS011;67556;55.656;12.590;2023-11-19T01:08:27;5.35;;;3.60;;
78298;SDS011;67556;55.656;12.590;2023-11-19T01:10:54;3.72;;;2.70;;
78298;SDS011;67556;55.656;12.590;2023-11-19T01:13:20;5.13;;;2.63;;
78298;SDS011;67556;55.656;12.590;2023-11-19T01:15:48;5.65;;;2.72;;
78298;SDS011;67556;55.656;12.590;2023-11-19T01:18:16;4.30;;;2.22;;
78298;SDS011;67556;55.656;12.590;2023-11-19T01:20:42;4.65;;;2.70;;
78298;SDS011;67556;55.656;12.590;2023-11-19T01:23:08;3.30;;;2.50;;
78298;SDS011;67556;55.656;12.590;2023-11-19T01:25:35;3.53;;;2.60;;
78298;SDS011;67556;55.656;12.590;2023-11-19T01:28:03;3.15;;;2.25;;
78298;SDS011;67556;55.656;12.590;2023-11-19T01:30:31;7.55;;;2.63;;
78298;SDS011;67556;55.656;12.590;2023-11-19T01:32:59;3.80;;;2.88;;
78298;SDS011;67556;55.656;12.590;2023-11-19T01:35:26;4.43;;;2.83;;
78298;SDS011;67556;55.656;12.590;2023-11-19T01:37:53;3.47;;;2.40;;
78298;SDS011;67556;55.656;12.590;2023-11-19T01:40:20;3.92;;;2.58;;
78298;SDS011;67556;55.656;12.590;2023-11-19T01:42:46;4.43;;;2.55;;
78298;SDS011;67556;55.656;12.590;2023-11-19T01:45:19;3.35;;;2.30;;
78298;SDS011;67556;55.656;12.590;2023-11-19T01:47:48;3.20;;;2.40;;
78298;SDS011;67556;55.656;12.590;2023-11-19T01:50:16;3.05;;;2.22;;
78298;SDS011;67556;55.656;12.590;2023-11-19T01:52:42;4.20;;;2.42;;
78298;SDS011;67556;55.656;12.590;2023-11-19T01:55:09;3.60;;;2.58;;
78298;SDS011;67556;55.656;12.590;2023-11-19T01:57:37;3.35;;;2.75;;
78298;SDS011;67556;55.656;12.590;2023-11-19T02:00:06;4.40;;;2.40;;
78298;SDS011;67556;55.656;12.590;2023-11-19T02:02:36;3.22;;;2.25;;
78298;SDS011;67556;55.656;12.590;2023-11-19T02:05:03;3.58;;;2.35;;
78298;SDS011;67556;55.656;12.590;2023-11-19T02:07:31;4.22;;;2.47;;
78298;SDS011;67556;55.656;12.590;2023-11-19T02:09:58;4.97;;;2.95;;
78298;SDS011;67556;55.656;12.590;2023-11-19T02:12:25;5.40;;;3.28;;
78298;SDS011;67556;55.656;12.590;2023-11-19T02:14:54;5.43;;;3.40;;
78298;SDS011;67556;55.656;12.590;2023-11-19T02:17:27;5.60;;;3.05;;
78298;SDS011;67556;55.656;12.590;2023-11-19T02:19:53;9.85;;;4.30;;
78298;SDS011;67556;55.656;12.590;2023-11-19T02:22:20;6.05;;;3.47;;
78298;SDS011;67556;55.656;12.590;2023-11-19T02:24:48;6.05;;;3.75;;
78298;SDS011;67556;55.656;12.590;2023-11-19T02:27:16;7.43;;;4.10;;
78298;SDS011;67556;55.656;12.590;2023-11-19T02:29:47;6.90;;;4.68;;
78298;SDS011;67556;55.656;12.590;2023-11-19T02:32:15;6.22;;;3.63;;
78298;SDS011;67556;55.656;12.590;2023-11-19T02:34:43;6.18;;;3.95;;
78298;SDS011;67556;55.656;12.590;2023-11-19T02:37:12;6.03;;;3.88;;
78298;SDS011;67556;55.656;12.590;2023-11-19T02:39:40;7.13;;;4.50;;
78298;SDS011;67556;55.656;12.590;2023-11-19T02:42:07;7.03;;;4.35;;
78298;SDS011;67556;55.656;12.590;2023-11-19T02:44:34;7.53;;;4.18;;
78298;SDS011;67556;55.656;12.590;2023-11-19T02:47:02;6.53;;;4.28;;
78298;SDS011;67556;55.656;12.590;2023-11-19T02:49:30;6.45;;;4.30;;
78298;SDS011;67556;55.656;12.590;2023-11-19T02:51:57;7.10;;;4.25;;
78298;SDS011;67556;55.656;12.590;2023-11-19T02:54:25;6.88;;;4.28;;
78298;SDS011;67556;55.656;12.590;2023-11-19T02:56:52;6.82;;;4.10;;
78298;SDS011;67556;55.656;12.590;2023-11-19T02:59:24;6.10;;;3.70;;
78298;SDS011;67556;55.656;12.590;2023-11-19T03:01:53;5.85;;;3.45;;
78298;SDS011;67556;55.656;12.590;2023-11-19T03:04:21;5.90;;;3.78;;
78298;SDS011;67556;55.656;12.590;2023-11-19T03:06:48;4.63;;;3.80;;
78298;SDS011;67556;55.656;12.590;2023-11-19T03:09:15;6.78;;;4.38;;
78298;SDS011;67556;55.656;12.590;2023-11-19T03:11:41;4.85;;;3.67;;
78298;SDS011;67556;55.656;12.590;2023-11-19T03:14:08;7.10;;;4.60;;
78298;SDS011;67556;55.656;12.590;2023-11-19T03:16:35;7.35;;;4.15;;
78298;SDS011;67556;55.656;12.590;2023-11-19T03:19:01;5.93;;;4.25;;
78298;SDS011;67556;55.656;12.590;2023-11-19T03:21:30;5.63;;;4.13;;
78298;SDS011;67556;55.656;12.590;2023-11-19T03:23:57;5.32;;;3.83;;
78298;SDS011;67556;55.656;12.590;2023-11-19T03:26:25;4.88;;;3.40;;
78298;SDS011;67556;55.656;12.590;2023-11-19T03:28:52;5.05;;;3.70;;
78298;SDS011;67556;55.656;12.590;2023-11-19T03:31:19;6.32;;;3.78;;
78298;SDS011;67556;55.656;12.590;2023-11-19T03:33:47;6.28;;;4.43;;
78298;SDS011;67556;55.656;12.590;2023-11-19T03:36:16;5.68;;;4.30;;
78298;SDS011;67556;55.656;12.590;2023-11-19T03:38:45;6.05;;;4.03;;
78298;SDS011;67556;55.656;12.590;2023-11-19T03:41:12;5.50;;;3.35;;
78298;SDS011;67556;55.656;12.590;2023-11-19T03:43:39;6.88;;;4.07;;
78298;SDS011;67556;55.656;12.590;2023-11-19T03:46:15;6.00;;;4.07;;
78298;SDS011;67556;55.656;12.590;2023-11-19T03:48:42;6.38;;;4.25;;
78298;SDS011;67556;55.656;12.590;2023-11-19T03:51:08;6.10;;;4.45;;
78298;SDS011;67556;55.656;12.590;2023-11-19T03:53:38;6.00;;;4.45;;
78298;SDS011;67556;55.656;12.590;2023-11-19T03:56:09;6.75;;;4.45;;
78298;SDS011;67556;55.656;12.590;2023-11-19T03:58:36;4.85;;;4.13;;
78298;SDS011;67556;55.656;12.590;2023-11-19T04:03:36;6.32;;;3.58;;
78298;SDS011;67556;55.656;12.590;2023-11-19T04:06:03;5.60;;;4.35;;
78298;SDS011;67556;55.656;12.590;2023-11-19T04:08:29;6.07;;;4.32;;
78298;SDS011;67556;55.656;12.590;2023-11-19T04:10:56;5.60;;;3.95;;
78298;SDS011;67556;55.656;12.590;2023-11-19T04:13:24;9.10;;;4.55;;
78298;SDS011;67556;55.656;12.590;2023-11-19T04:15:50;6.82;;;4.53;;
78298;SDS011;67556;55.656;12.590;2023-11-19T04:18:17;6.65;;;4.80;;
78298;SDS011;67556;55.656;12.590;2023-11-19T04:20:43;6.47;;;4.35;;
78298;SDS011;67556;55.656;12.590;2023-11-19T04:23:10;6.25;;;5.25;;
78298;SDS011;67556;55.656;12.590;2023-11-19T04:25:36;7.72;;;4.93;;
78298;SDS011;67556;55.656;12.590;2023-11-19T04:28:03;5.28;;;3.88;;
78298;SDS011;67556;55.656;12.590;2023-11-19T04:30:31;6.65;;;4.75;;
78298;SDS011;67556;55.656;12.590;2023-11-19T04:32:58;6.97;;;4.50;;
78298;SDS011;67556;55.656;12.590;2023-11-19T04:35:24;7.93;;;4.70;;
78298;SDS011;67556;55.656;12.590;2023-11-19T04:37:51;5.72;;;4.68;;
78298;SDS011;67556;55.656;12.590;2023-11-19T04:40:18;5.45;;;3.50;;
78298;SDS011;67556;55.656;12.590;2023-11-19T04:42:48;6.80;;;4.03;;
78298;SDS011;67556;55.656;12.590;2023-11-19T04:45:15;6.38;;;3.90;;
78298;SDS011;67556;55.656;12.590;2023-11-19T04:47:43;4.30;;;3.85;;
78298;SDS011;67556;55.656;12.590;2023-11-19T04:50:10;4.03;;;3.15;;
78298;SDS011;67556;55.656;12.590;2023-11-19T04:52:37;4.05;;;3.15;;
78298;SDS011;67556;55.656;12.590;2023-11-19T04:55:03;6.40;;;4.15;;
78298;SDS011;67556;55.656;12.590;2023-11-19T04:57:30;3.85;;;2.55;;
78298;SDS011;67556;55.656;12.590;2023-11-19T04:59:57;5.63;;;3.20;;
78298;SDS011;67556;55.656;12.590;2023-11-19T05:02:25;3.60;;;2.83;;
78298;SDS011;67556;55.656;12.590;2023-11-19T05:04:53;3.63;;;2.85;;
78298;SDS011;67556;55.656;12.590;2023-11-19T05:07:20;3.50;;;2.30;;
78298;SDS011;67556;55.656;12.590;2023-11-19T05:09:46;5.43;;;3.05;;
78298;SDS011;67556;55.656;12.590;2023-11-19T05:12:13;6.22;;;3.92;;
78298;SDS011;67556;55.656;12.590;2023-11-19T05:14:39;5.20;;;2.80;;
78298;SDS011;67556;55.656;12.590;2023-11-19T05:17:06;3.50;;;3.00;;
78298;SDS011;67556;55.656;12.590;2023-11-19T05:19:33;2.67;;;2.35;;
78298;SDS011;67556;55.656;12.590;2023-11-19T05:22:01;4.78;;;2.95;;
78298;SDS011;67556;55.656;12.590;2023-11-19T05:24:28;5.13;;;2.67;;
78298;SDS011;67556;55.656;12.590;2023-11-19T05:26:54;5.90;;;3.63;;
78298;SDS011;67556;55.656;12.590;2023-11-19T05:29:21;4.63;;;3.13;;
78298;SDS011;67556;55.656;12.590;2023-11-19T05:31:47;5.28;;;3.03;;
78298;SDS011;67556;55.656;12.590;2023-11-19T05:34:14;4.88;;;4.10;;
78298;SDS011;67556;55.656;12.590;2023-11-19T05:36:40;4.60;;;3.50;;
78298;SDS011;67556;55.656;12.590;2023-11-19T05:39:08;6.05;;;2.90;;
78298;SDS011;67556;55.656;12.590;2023-11-19T05:41:36;6.93;;;3.22;;
78298;SDS011;67556;55.656;12.590;2023-11-19T05:44:03;3.92;;;3.08;;
78298;SDS011;67556;55.656;12.590;2023-11-19T05:46:29;4.18;;;3.20;;
78298;SDS011;67556;55.656;12.590;2023-11-19T05:48:56;5.25;;;3.05;;
78298;SDS011;67556;55.656;12.590;2023-11-19T05:51:23;5.95;;;4.13;;
78298;SDS011;67556;55.656;12.590;2023-11-19T05:53:50;5.30;;;3.92;;
78298;SDS011;67556;55.656;12.590;2023-11-19T05:56:18;6.88;;;4.43;;
78298;SDS011;67556;55.656;12.590;2023-11-19T05:58:46;7.50;;;4.47;;
78298;SDS011;67556;55.656;12.590;2023-11-19T06:01:14;6.35;;;4.38;;
78298;SDS011;67556;55.656;12.590;2023-11-19T06:03:41;6.47;;;4.03;;
78298;SDS011;67556;55.656;12.590;2023-11-19T06:06:08;7.63;;;4.40;;
78298;SDS011;67556;55.656;12.590;2023-11-19T06:08:35;4.47;;;3.97;;
78298;SDS011;67556;55.656;12.590;2023-11-19T06:11:03;6.60;;;4.63;;
78298;SDS011;67556;55.656;12.590;2023-11-19T06:13:32;6.55;;;4.97;;
78298;SDS011;67556;55.656;12.590;2023-11-19T06:15:59;5.28;;;3.80;;
78298;SDS011;67556;55.656;12.590;2023-11-19T06:18:27;9.90;;;5.10;;
78298;SDS011;67556;55.656;12.590;2023-11-19T06:20:54;6.18;;;3.22;;
78298;SDS011;67556;55.656;12.590;2023-11-19T06:23:21;6.55;;;2.90;;
78298;SDS011;67556;55.656;12.590;2023-11-19T06:25:48;6.10;;;4.05;;
78298;SDS011;67556;55.656;12.590;2023-11-19T06:28:14;8.45;;;5.05;;
78298;SDS011;67556;55.656;12.590;2023-11-19T06:30:42;4.18;;;3.13;;
78298;SDS011;67556;55.656;12.590;2023-11-19T06:33:09;7.32;;;4.38;;
78298;SDS011;67556;55.656;12.590;2023-11-19T06:35:41;5.68;;;3.67;;
78298;SDS011;67556;55.656;12.590;2023-11-19T06:38:11;4.55;;;3.50;;
78298;SDS011;67556;55.656;12.590;2023-11-19T06:40:38;8.27;;;4.88;;
78298;SDS011;67556;55.656;12.590;2023-11-19T06:43:09;8.48;;;3.38;;
78298;SDS011;67556;55.656;12.590;2023-11-19T06:45:36;4.32;;;3.25;;
78298;SDS011;67556;55.656;12.590;2023-11-19T06:48:04;4.68;;;3.88;;
78298;SDS011;67556;55.656;12.590;2023-11-19T06:50:32;4.35;;;2.75;;
78298;SDS011;67556;55.656;12.590;2023-11-19T06:52:59;4.97;;;2.80;;
78298;SDS011;67556;55.656;12.590;2023-11-19T06:55:26;5.90;;;3.50;;
78298;SDS011;67556;55.656;12.590;2023-11-19T06:57:53;5.13;;;3.58;;
78298;SDS011;67556;55.656;12.590;2023-11-19T07:00:19;5.28;;;3.15;;
78298;SDS011;67556;55.656;12.590;2023-11-19T07:02:46;7.75;;;3.58;;
78298;SDS011;67556;55.656;12.590;2023-11-19T07:05:18;5.90;;;3.75;;
78298;SDS011;67556;55.656;12.590;2023-11-19T07:07:44;7.20;;;3.97;;
78298;SDS011;67556;55.656;12.590;2023-11-19T07:10:11;5.65;;;4.18;;
78298;SDS011;67556;55.656;12.590;2023-11-19T07:12:39;5.45;;;4.00;;
78298;SDS011;67556;55.656;12.590;2023-11-19T07:15:06;7.38;;;4.30;;
78298;SDS011;67556;55.656;12.590;2023-11-19T07:17:33;5.70;;;4.18;;
78298;SDS011;67556;55.656;12.590;2023-11-19T07:20:00;6.68;;;4.35;;
78298;SDS011;67556;55.656;12.590;2023-11-19T07:22:28;7.85;;;4.38;;
78298;SDS011;67556;55.656;12.590;2023-11-19T07:25:01;4.15;;;3.65;;
78298;SDS011;67556;55.656;12.590;2023-11-19T07:27:27;9.35;;;6.30;;
78298;SDS011;67556;55.656;12.590;2023-11-19T07:29:54;11.80;;;6.28;;
78298;SDS011;67556;55.656;12.590;2023-11-19T07:32:20;9.60;;;6.03;;
78298;SDS011;67556;55.656;12.590;2023-11-19T07:34:47;6.75;;;5.03;;
78298;SDS011;67556;55.656;12.590;2023-11-19T07:37:14;8.65;;;6.13;;
78298;SDS011;67556;55.656;12.590;2023-11-19T07:39:43;8.73;;;5.15;;
78298;SDS011;67556;55.656;12.590;2023-11-19T07:42:10;11.50;;;5.88;;
78298;SDS011;67556;55.656;12.590;2023-11-19T07:44:38;9.30;;;5.88;;
78298;SDS011;67556;55.656;12.590;2023-11-19T07:47:05;8.85;;;4.68;;
78298;SDS011;67556;55.656;12.590;2023-11-19T07:49:32;8.23;;;4.63;;
78298;SDS011;67556;55.656;12.590;2023-11-19T07:51:58;7.63;;;4.72;;
78298;SDS011;67556;55.656;12.590;2023-11-19T07:54:25;6.50;;;4.65;;
78298;SDS011;67556;55.656;12.590;2023-11-19T07:56:54;8.55;;;5.60;;
78298;SDS011;67556;55.656;12.590;2023-11-19T07:59:21;9.20;;;4.80;;
78298;SDS011;67556;55.656;12.590;2023-11-19T08:01:47;6.75;;;4.32;;
78298;SDS011;67556;55.656;12.590;2023-11-19T08:04:14;9.02;;;5.95;;
78298;SDS011;67556;55.656;12.590;2023-11-19T08:06:41;12.50;;;5.80;;
78298;SDS011;67556;55.656;12.590;2023-11-19T08:09:08;8.85;;;4.35;;
78298;SDS011;67556;55.656;12.590;2023-11-19T08:11:40;6.03;;;3.58;;
78298;SDS011;67556;55.656;12.590;2023-11-19T08:14:10;6.90;;;4.22;;
78298;SDS011;67556;55.656;12.590;2023-11-19T08:16:38;7.13;;;4.05;;
78298;SDS011;67556;55.656;12.590;2023-11-19T08:19:05;6.22;;;4.20;;
78298;SDS011;67556;55.656;12.590;2023-11-19T08:21:33;5.57;;;3.72;;
78298;SDS011;67556;55.656;12.590;2023-11-19T08:23:59;8.05;;;4.72;;
78298;SDS011;67556;55.656;12.590;2023-11-19T08:26:26;8.20;;;4.70;;
78298;SDS011;67556;55.656;12.590;2023-11-19T08:28:53;5.25;;;3.85;;
78298;SDS011;67556;55.656;12.590;2023-11-19T08:31:21;5.30;;;4.03;;
78298;SDS011;67556;55.656;12.590;2023-11-19T08:33:48;5.05;;;3.58;;
78298;SDS011;67556;55.656;12.590;2023-11-19T08:36:15;4.47;;;3.03;;
78298;SDS011;67556;55.656;12.590;2023-11-19T08:38:43;6.20;;;4.20;;
78298;SDS011;67556;55.656;12.590;2023-11-19T08:41:10;4.55;;;2.80;;
78298;SDS011;67556;55.656;12.590;2023-11-19T08:43:36;4.88;;;3.85;;
78298;SDS011;67556;55.656;12.590;2023-11-19T08:46:03;8.68;;;4.15;;
78298;SDS011;67556;55.656;12.590;2023-11-19T08:48:32;4.93;;;3.90;;
78298;SDS011;67556;55.656;12.590;2023-11-19T08:50:58;5.60;;;3.35;;
78298;SDS011;67556;55.656;12.590;2023-11-19T08:53:25;7.05;;;3.85;;
78298;SDS011;67556;55.656;12.590;2023-11-19T08:55:52;8.45;;;3.20;;
78298;SDS011;67556;55.656;12.590;2023-11-19T08:58:21;5.05;;;3.47;;
78298;SDS011;67556;55.656;12.590;2023-11-19T09:00:47;5.80;;;3.70;;
78298;SDS011;67556;55.656;12.590;2023-11-19T09:03:14;4.93;;;3.20;;
78298;SDS011;67556;55.656;12.590;2023-11-19T09:05:42;4.70;;;2.70;;
78298;SDS011;67556;55.656;12.590;2023-11-19T09:08:10;3.13;;;2.15;;
78298;SDS011;67556;55.656;12.590;2023-11-19T09:10:39;4.00;;;2.22;;
78298;SDS011;67556;55.656;12.590;2023-11-19T09:13:05;2.92;;;2.00;;
78298;SDS011;67556;55.656;12.590;2023-11-19T09:15:33;4.20;;;2.45;;
78298;SDS011;67556;55.656;12.590;2023-11-19T09:17:59;3.50;;;2.08;;
78298;SDS011;67556;55.656;12.590;2023-11-19T09:20:26;3.72;;;2.40;;
78298;SDS011;67556;55.656;12.590;2023-11-19T09:22:54;2.60;;;1.88;;
78298;SDS011;67556;55.656;12.590;2023-11-19T09:25:21;2.83;;;2.17;;
78298;SDS011;67556;55.656;12.590;2023-11-19T09:27:50;2.97;;;1.88;;
78298;SDS011;67556;55.656;12.590;2023-11-19T09:30:17;2.78;;;2.40;;
78298;SDS011;67556;55.656;12.590;2023-11-19T09:32:45;3.60;;;2.47;;
78298;SDS011;67556;55.656;12.590;2023-11-19T09:35:13;3.78;;;2.13;;
78298;SDS011;67556;55.656;12.590;2023-11-19T09:37:40;4.00;;;2.38;;
78298;SDS011;67556;55.656;12.590;2023-11-19T09:40:09;2.85;;;2.00;;
78298;SDS011;67556;55.656;12.590;2023-11-19T09:42:39;2.38;;;2.05;;
78298;SDS011;67556;55.656;12.590;2023-11-19T09:45:09;3.60;;;2.20;;
78298;SDS011;67556;55.656;12.590;2023-11-19T09:47:39;1.90;;;1.70;;
78298;SDS011;67556;55.656;12.590;2023-11-19T09:50:07;1.60;;;1.50;;
78298;SDS011;67556;55.656;12.590;2023-11-19T09:52:35;2.67;;;1.50;;
78298;SDS011;67556;55.656;12.590;2023-11-19T09:55:02;2.28;;;1.75;;
78298;SDS011;67556;55.656;12.590;2023-11-19T09:57:30;2.15;;;1.70;;
78298;SDS011;67556;55.656;12.590;2023-11-19T09:59:59;2.05;;;1.77;;
78298;SDS011;67556;55.656;12.590;2023-11-19T10:02:26;3.53;;;2.17;;
78298;SDS011;67556;55.656;12.590;2023-11-19T10:04:53;1.77;;;1.58;;
78298;SDS011;67556;55.656;12.590;2023-11-19T10:07:21;2.15;;;1.67;;
78298;SDS011;67556;55.656;12.590;2023-11-19T10:09:49;1.50;;;1.40;;
78298;SDS011;67556;55.656;12.590;2023-11-19T10:12:16;2.28;;;1.67;;
78298;SDS011;67556;55.656;12.590;2023-11-19T10:14:44;3.22;;;2.28;;
78298;SDS011;67556;55.656;12.590;2023-11-19T10:17:12;2.13;;;1.88;;
78298;SDS011;67556;55.656;12.590;2023-11-19T10:19:39;2.22;;;1.60;;
78298;SDS011;67556;55.656;12.590;2023-11-19T10:22:06;1.95;;;1.40;;
78298;SDS011;67556;55.656;12.590;2023-11-19T10:24:33;1.60;;;1.33;;
78298;SDS011;67556;55.656;12.590;2023-11-19T10:27:01;1.30;;;1.20;;
78298;SDS011;67556;55.656;12.590;2023-11-19T10:29:29;7.50;;;2.10;;
78298;SDS011;67556;55.656;12.590;2023-11-19T10:31:58;2.15;;;1.85;;
78298;SDS011;67556;55.656;12.590;2023-11-19T10:34:25;5.10;;;2.05;;
78298;SDS011;67556;55.656;12.590;2023-11-19T10:36:52;2.08;;;1.45;;
78298;SDS011;67556;55.656;12.590;2023-11-19T10:39:19;3.05;;;1.60;;
78298;SDS011;67556;55.656;12.590;2023-11-19T10:41:46;2.85;;;1.90;;
78298;SDS011;67556;55.656;12.590;2023-11-19T10:44:12;3.03;;;2.00;;
78298;SDS011;67556;55.656;12.590;2023-11-19T10:47:02;1.60;;;1.50;;
78298;SDS011;67556;55.656;12.590;2023-11-19T10:49:40;2.25;;;1.70;;
78298;SDS011;67556;55.656;12.590;2023-11-19T10:52:07;2.45;;;1.60;;
78298;SDS011;67556;55.656;12.590;2023-11-19T10:54:34;3.85;;;1.23;;
78298;SDS011;67556;55.656;12.590;2023-11-19T10:57:02;6.25;;;1.90;;
78298;SDS011;67556;55.656;12.590;2023-11-19T10:59:30;1.42;;;1.33;;
78298;SDS011;67556;55.656;12.590;2023-11-19T11:01:58;2.85;;;1.80;;
78298;SDS011;67556;55.656;12.590;2023-11-19T11:04:28;2.95;;;1.30;;
78298;SDS011;67556;55.656;12.590;2023-11-19T11:06:57;6.22;;;3.28;;
78298;SDS011;67556;55.656;12.590;2023-11-19T11:09:26;3.92;;;2.00;;
78298;SDS011;67556;55.656;12.590;2023-11-19T11:11:53;2.92;;;1.80;;
78298;SDS011;67556;55.656;12.590;2023-11-19T11:14:23;2.15;;;1.67;;
78298;SDS011;67556;55.656;12.590;2023-11-19T11:16:51;2.50;;;1.83;;
78298;SDS011;67556;55.656;12.590;2023-11-19T11:19:20;5.55;;;2.28;;
78298;SDS011;67556;55.656;12.590;2023-11-19T11:21:51;1.95;;;1.48;;
78298;SDS011;67556;55.656;12.590;2023-11-19T11:24:31;2.03;;;1.52;;
78298;SDS011;67556;55.656;12.590;2023-11-19T11:27:04;2.75;;;1.80;;
78298;SDS011;67556;55.656;12.590;2023-11-19T11:29:46;3.72;;;2.08;;
78298;SDS011;67556;55.656;12.590;2023-11-19T11:32:20;2.20;;;1.67;;
78298;SDS011;67556;55.656;12.590;2023-11-19T11:34:50;2.10;;;1.58;;
78298;SDS011;67556;55.656;12.590;2023-11-19T11:37:31;2.70;;;1.85;;
78298;SDS011;67556;55.656;12.590;2023-11-19T11:39:58;2.45;;;2.17;;
78298;SDS011;67556;55.656;12.590;2023-11-19T11:42:32;2.15;;;1.95;;
78298;SDS011;67556;55.656;12.590;2023-11-19T11:44:57;4.50;;;2.35;;
78298;SDS011;67556;55.656;12.590;2023-11-19T11:47:25;4.93;;;1.80;;
78298;SDS011;67556;55.656;12.590;2023-11-19T11:49:53;3.70;;;2.00;;
78298;SDS011;67556;55.656;12.590;2023-11-19T11:52:20;2.85;;;2.30;;
78298;SDS011;67556;55.656;12.590;2023-11-19T11:54:47;2.88;;;2.30;;
78298;SDS011;67556;55.656;12.590;2023-11-19T11:57:13;2.85;;;2.25;;
78298;SDS011;67556;55.656;12.590;2023-11-19T11:59:43;3.55;;;2.00;;
78298;SDS011;67556;55.656;12.590;2023-11-19T12:02:12;3.25;;;2.20;;
78298;SDS011;67556;55.656;12.590;2023-11-19T12:04:39;2.97;;;2.00;;
78298;SDS011;67556;55.656;12.590;2023-11-19T12:07:06;2.42;;;2.00;;
78298;SDS011;67556;55.656;12.590;2023-11-19T12:09:34;5.82;;;2.40;;
78298;SDS011;67556;55.656;12.590;2023-11-19T12:15:03;3.95;;;2.15;;
78298;SDS011;67556;55.656;12.590;2023-11-19T12:17:47;3.55;;;2.10;;
78298;SDS011;67556;55.656;12.590;2023-11-19T12:20:18;3.90;;;1.95;;
78298;SDS011;67556;55.656;12.590;2023-11-19T12:22:45;3.05;;;1.90;;
78298;SDS011;67556;55.656;12.590;2023-11-19T12:25:14;2.95;;;2.20;;
78298;SDS011;67556;55.656;12.590;2023-11-19T12:27:41;2.88;;;2.05;;
78298;SDS011;67556;55.656;12.590;2023-11-19T12:30:10;7.60;;;2.30;;
78298;SDS011;67556;55.656;12.590;2023-11-19T12:32:38;3.08;;;2.15;;
78298;SDS011;67556;55.656;12.590;2023-11-19T12:35:05;2.97;;;1.80;;
78298;SDS011;67556;55.656;12.590;2023-11-19T12:37:32;3.30;;;2.10;;
78298;SDS011;67556;55.656;12.590;2023-11-19T12:39:58;3.53;;;1.77;;
78298;SDS011;67556;55.656;12.590;2023-11-19T12:42:34;2.47;;;1.95;;
78298;SDS011;67556;55.656;12.590;2023-11-19T12:45:14;2.17;;;1.83;;
78298;SDS011;67556;55.656;12.590;2023-11-19T12:47:44;2.67;;;1.88;;
78298;SDS011;67556;55.656;12.590;2023-11-19T12:50:13;2.28;;;1.88;;
78298;SDS011;67556;55.656;12.590;2023-11-19T12:52:40;1.92;;;1.73;;
78298;SDS011;67556;55.656;12.590;2023-11-19T12:55:26;2.90;;;1.80;;
78298;SDS011;67556;55.656;12.590;2023-11-19T12:57:55;2.33;;;1.80;;
78298;SDS011;67556;55.656;12.590;2023-11-19T13:00:23;2.75;;;2.03;;
78298;SDS011;67556;55.656;12.590;2023-11-19T13:02:51;2.33;;;1.85;;
78298;SDS011;67556;55.656;12.590;2023-11-19T13:05:23;2.42;;;2.00;;
78298;SDS011;67556;55.656;12.590;2023-11-19T13:07:49;3.35;;;1.75;;
78298;SDS011;67556;55.656;12.590;2023-11-19T13:10:17;3.95;;;1.90;;
78298;SDS011;67556;55.656;12.590;2023-11-19T13:12:43;2.72;;;1.95;;
78298;SDS011;67556;55.656;12.590;2023-11-19T13:15:24;3.35;;;2.00;;
78298;SDS011;67556;55.656;12.590;2023-11-19T13:17:51;3.22;;;2.20;;
78298;SDS011;67556;55.656;12.590;2023-11-19T13:20:18;2.78;;;2.03;;
78298;SDS011;67556;55.656;12.590;2023-11-19T13:22:55;2.92;;;1.85;;
78298;SDS011;67556;55.656;12.590;2023-11-19T13:25:24;2.03;;;1.60;;
78298;SDS011;67556;55.656;12.590;2023-11-19T13:27:51;3.50;;;2.03;;
78298;SDS011;67556;55.656;12.590;2023-11-19T13:30:18;4.32;;;1.70;;
78298;SDS011;67556;55.656;12.590;2023-11-19T13:32:46;3.80;;;2.30;;
78298;SDS011;67556;55.656;12.590;2023-11-19T13:35:22;4.07;;;2.50;;
78298;SDS011;67556;55.656;12.590;2023-11-19T13:37:50;3.13;;;2.47;;
78298;SDS011;67556;55.656;12.590;2023-11-19T13:40:20;4.30;;;2.05;;
78298;SDS011;67556;55.656;12.590;2023-11-19T13:42:47;2.72;;;2.30;;
78298;SDS011;67556;55.656;12.590;2023-11-19T13:45:14;2.83;;;1.75;;
78298;SDS011;67556;55.656;12.590;2023-11-19T13:47:43;1.63;;;1.50;;
78298;SDS011;67556;55.656;12.590;2023-11-19T13:50:11;3.55;;;2.00;;
78298;SDS011;67556;55.656;12.590;2023-11-19T13:52:40;2.55;;;1.98;;
78298;SDS011;67556;55.656;12.590;2023-11-19T13:55:08;2.78;;;1.92;;
78298;SDS011;67556;55.656;12.590;2023-11-19T13:57:37;2.90;;;2.00;;
78298;SDS011;67556;55.656;12.590;2023-11-19T14:00:04;2.38;;;2.00;;
78298;SDS011;67556;55.656;12.590;2023-11-19T14:02:32;3.00;;;2.00;;
78298;SDS011;67556;55.656;12.590;2023-11-19T14:04:58;2.38;;;1.90;;
78298;SDS011;67556;55.656;12.590;2023-11-19T14:07:26;2.03;;;1.60;;
78298;SDS011;67556;55.656;12.590;2023-11-19T14:09:56;3.05;;;2.22;;
78298;SDS011;67556;55.656;12.590;2023-11-19T14:12:22;2.92;;;1.75;;
78298;SDS011;67556;55.656;12.590;2023-11-19T14:14:49;3.25;;;1.90;;
78298;SDS011;67556;55.656;12.590;2023-11-19T14:17:16;3.72;;;2.25;;
78298;SDS011;67556;55.656;12.590;2023-11-19T14:19:43;2.40;;;2.13;;
78298;SDS011;67556;55.656;12.590;2023-11-19T14:22:10;3.03;;;2.38;;
78298;SDS011;67556;55.656;12.590;2023-11-19T14:24:38;4.05;;;1.90;;
78298;SDS011;67556;55.656;12.590;2023-11-19T14:27:06;2.00;;;1.73;;
78298;SDS011;67556;55.656;12.590;2023-11-19T14:29:32;2.30;;;1.85;;
78298;SDS011;67556;55.656;12.590;2023-11-19T14:31:59;3.38;;;2.22;;
78298;SDS011;67556;55.656;12.590;2023-11-19T14:34:26;3.10;;;2.00;;
78298;SDS011;67556;55.656;12.590;2023-11-19T14:36:55;3.70;;;1.92;;
78298;SDS011;67556;55.656;12.590;2023-11-19T14:39:22;3.03;;;2.15;;
78298;SDS011;67556;55.656;12.590;2023-11-19T14:41:51;1.83;;;1.63;;
78298;SDS011;67556;55.656;12.590;2023-11-19T14:44:18;3.58;;;2.10;;